createdAt,value
2018-02-12T00:00:35.782Z,0.50
2018-02-12T00:03:04.134Z,0.50
2018-02-12T00:05:31.744Z,0.57
2018-02-12T00:08:00.120Z,0.40
2018-02-12T00:10:28.425Z,0.50
2018-02-12T00:12:56.252Z,0.63
2018-02-12T00:15:24.556Z,0.40
2018-02-12T00:17:52.325Z,0.50
2018-02-12T00:20:19.906Z,0.50
2018-02-12T00:22:47.512Z,0.43
2018-02-12T00:25:15.849Z,0.40
2018-02-12T00:27:43.414Z,0.40
2018-02-12T00:30:11.032Z,0.30
2018-02-12T00:32:38.654Z,0.50
2018-02-12T00:35:06.243Z,0.40
2018-02-12T00:37:34.543Z,0.50
2018-02-12T00:40:02.077Z,0.50
2018-02-12T00:42:30.416Z,0.53
2018-02-12T00:44:57.966Z,0.40
2018-02-12T00:47:25.548Z,0.40
2018-02-12T00:49:53.091Z,0.40
2018-02-12T00:52:20.722Z,0.40
2018-02-12T00:54:48.280Z,0.50
2018-02-12T00:57:15.817Z,0.40
2018-02-12T00:59:43.403Z,0.50
2018-02-12T01:02:10.948Z,0.40
2018-02-12T01:04:38.480Z,0.47
2018-02-12T01:07:06.047Z,0.53
2018-02-12T01:09:34.370Z,0.57
2018-02-12T01:12:02.086Z,0.50
2018-02-12T01:14:30.408Z,0.40
2018-02-12T01:16:57.962Z,0.40
2018-02-12T01:19:25.688Z,0.50
2018-02-12T01:21:54.118Z,0.60
2018-02-12T01:24:21.711Z,0.50
2018-02-12T01:26:49.298Z,0.60
2018-02-12T01:29:16.894Z,0.50
2018-02-12T01:31:44.646Z,0.60
2018-02-12T01:34:12.222Z,0.40
2018-02-12T01:36:39.780Z,0.63
2018-02-12T01:39:07.342Z,0.40
2018-02-12T01:41:34.928Z,0.40
2018-02-12T01:44:02.486Z,0.40
2018-02-12T01:46:30.836Z,0.40
2018-02-12T01:48:58.398Z,0.83
2018-02-12T01:51:26.000Z,0.57
2018-02-12T01:53:54.330Z,0.80
2018-02-12T01:56:22.065Z,0.40
2018-02-12T01:58:49.642Z,0.50
2018-02-12T02:01:17.252Z,0.37
2018-02-12T02:03:44.804Z,0.40
2018-02-12T02:06:12.396Z,0.30
2018-02-12T02:08:40.690Z,0.40
2018-02-12T02:11:08.278Z,0.40
2018-02-12T02:13:35.940Z,0.40
2018-02-12T02:16:03.578Z,0.40
2018-02-12T02:18:31.158Z,0.50
2018-02-12T02:20:58.722Z,0.50
2018-02-12T02:23:26.264Z,0.37
2018-02-12T02:25:53.845Z,0.50
2018-02-12T02:28:21.492Z,0.50
2018-02-12T02:30:49.065Z,0.40
2018-02-12T02:33:16.705Z,0.40
2018-02-12T02:35:49.026Z,0.80
2018-02-12T02:38:16.616Z,0.40
2018-02-12T02:40:44.165Z,0.60
2018-02-12T02:43:12.527Z,0.40
2018-02-12T02:45:40.065Z,0.40
2018-02-12T02:48:07.662Z,0.50
2018-02-12T02:50:35.966Z,0.40
2018-02-12T02:53:03.573Z,0.40
2018-02-12T02:55:31.130Z,0.60
2018-02-12T02:57:59.475Z,0.40
2018-02-12T03:00:27.127Z,0.40
2018-02-12T03:02:54.715Z,0.40
2018-02-12T03:05:22.259Z,0.50
2018-02-12T03:07:49.865Z,0.57
2018-02-12T03:10:17.476Z,0.40
2018-02-12T03:12:45.025Z,0.40
2018-02-12T03:15:12.613Z,0.37
2018-02-12T03:17:40.176Z,0.40
2018-02-12T03:20:07.802Z,0.37
2018-02-12T03:22:35.401Z,0.50
2018-02-12T03:25:02.985Z,0.40
2018-02-12T03:27:30.537Z,0.30
2018-02-12T03:29:58.239Z,0.40
2018-02-12T03:32:25.820Z,0.30
2018-02-12T03:34:53.473Z,0.30
2018-02-12T03:37:21.169Z,0.40
2018-02-12T03:39:48.702Z,1.33
2018-02-12T03:42:16.283Z,0.40
2018-02-12T03:44:43.835Z,0.30
2018-02-12T03:47:11.403Z,0.40
2018-02-12T03:49:38.949Z,0.30
2018-02-12T03:52:06.629Z,0.40
2018-02-12T03:54:34.203Z,0.40
2018-02-12T03:57:01.777Z,0.40
2018-02-12T03:59:30.121Z,0.30
2018-02-12T04:01:57.688Z,0.30
2018-02-12T04:04:25.277Z,0.33
2018-02-12T04:06:53.743Z,0.40
2018-02-12T04:09:22.049Z,0.40
2018-02-12T04:11:49.625Z,0.40
2018-02-12T04:14:17.180Z,0.30
2018-02-12T04:16:45.111Z,0.40
2018-02-12T04:19:13.449Z,0.40
2018-02-12T04:21:41.043Z,0.40
2018-02-12T04:24:08.582Z,0.30
2018-02-12T04:26:36.159Z,0.33
2018-02-12T04:29:04.629Z,0.50
2018-02-12T04:31:33.727Z,0.37
2018-02-12T04:34:01.332Z,0.40
2018-02-12T04:36:28.873Z,0.40
2018-02-12T04:38:57.225Z,0.40
2018-02-12T04:41:24.795Z,0.37
2018-02-12T04:43:52.571Z,0.30
2018-02-12T04:46:20.971Z,0.40
2018-02-12T04:48:48.495Z,0.30
2018-02-12T04:51:16.861Z,0.40
2018-02-12T04:53:44.457Z,0.37
2018-02-12T04:56:12.955Z,0.37
2018-02-12T04:58:40.490Z,0.30
2018-02-12T05:01:08.852Z,0.30
2018-02-12T05:03:36.617Z,0.30
2018-02-12T05:06:04.190Z,0.30
2018-02-12T05:08:32.530Z,0.30
2018-02-12T05:11:00.058Z,0.40
2018-02-12T05:13:27.651Z,0.40
2018-02-12T05:15:55.237Z,0.40
2018-02-12T05:18:22.800Z,0.40
2018-02-12T05:20:50.338Z,0.40
2018-02-12T05:23:18.074Z,0.40
2018-02-12T05:25:45.625Z,0.37
2018-02-12T05:28:13.314Z,0.40
2018-02-12T05:30:41.386Z,0.30
2018-02-12T05:33:08.990Z,0.40
2018-02-12T05:35:37.302Z,0.40
2018-02-12T05:38:04.878Z,0.30
2018-02-12T05:40:32.444Z,0.30
2018-02-12T05:43:00.026Z,0.40
2018-02-12T05:45:27.603Z,0.40
2018-02-12T05:47:55.926Z,0.50
2018-02-12T05:50:23.520Z,0.40
2018-02-12T05:52:52.054Z,0.40
2018-02-12T05:55:19.594Z,0.47
2018-02-12T05:57:47.913Z,0.40
2018-02-12T06:00:15.472Z,0.40
2018-02-12T06:02:43.189Z,0.50
2018-02-12T06:05:10.795Z,0.37
2018-02-12T06:07:38.374Z,0.30
2018-02-12T06:10:05.967Z,0.40
2018-02-12T06:12:34.374Z,0.33
2018-02-12T06:15:01.966Z,0.40
2018-02-12T06:17:29.692Z,0.40
2018-02-12T06:19:57.272Z,0.30
2018-02-12T06:22:24.922Z,0.40
2018-02-12T06:24:52.486Z,0.40
2018-02-12T06:27:20.092Z,0.40
2018-02-12T06:29:47.668Z,0.50
2018-02-12T06:32:16.060Z,0.40
2018-02-12T06:34:44.402Z,0.47
2018-02-12T06:37:11.965Z,0.40
2018-02-12T06:39:39.536Z,0.43
2018-02-12T06:42:07.172Z,0.60
2018-02-12T06:44:34.799Z,0.70
2018-02-12T06:47:02.466Z,0.30
2018-02-12T06:49:30.146Z,0.50
2018-02-12T06:51:57.714Z,0.30
2018-02-12T06:54:25.291Z,0.40
2018-02-12T06:56:52.846Z,0.67
2018-02-12T06:59:20.464Z,0.80
2018-02-12T07:01:48.002Z,0.77
2018-02-12T07:04:15.635Z,0.60
2018-02-12T07:06:43.969Z,0.60
2018-02-12T07:09:11.534Z,0.50
2018-02-12T07:11:39.469Z,0.60
2018-02-12T07:14:07.042Z,0.70
2018-02-12T07:16:34.630Z,0.70
2018-02-12T07:19:02.324Z,0.57
2018-02-12T07:21:29.882Z,3.03
2018-02-12T07:23:57.690Z,0.97
2018-02-12T07:26:26.298Z,1.63
2018-02-12T07:28:53.878Z,0.77
2018-02-12T07:31:21.599Z,1.10
2018-02-12T07:33:49.148Z,1.00
2018-02-12T07:36:16.713Z,0.87
2018-02-12T07:38:44.380Z,1.03
2018-02-12T07:41:11.937Z,0.83
2018-02-12T07:43:39.533Z,0.60
2018-02-12T07:46:07.110Z,0.70
2018-02-12T07:48:34.662Z,0.73
2018-02-12T07:51:03.762Z,0.70
2018-02-12T07:53:31.436Z,0.80
2018-02-12T07:55:59.782Z,0.93
2018-02-12T07:58:27.356Z,0.60
2018-02-12T08:00:56.608Z,0.90
2018-02-12T08:03:24.178Z,0.93
2018-02-12T08:05:51.723Z,0.60
2018-02-12T08:08:19.310Z,0.67
2018-02-12T08:10:46.919Z,1.53
2018-02-12T08:13:15.251Z,0.87
2018-02-12T08:15:42.846Z,0.57
2018-02-12T08:18:10.398Z,0.90
2018-02-12T08:20:37.991Z,0.50
2018-02-12T08:23:05.579Z,0.97
2018-02-12T08:25:33.144Z,0.50
2018-02-12T08:28:00.729Z,0.60
2018-02-12T08:30:28.324Z,0.73
2018-02-12T08:32:56.696Z,0.50
2018-02-12T08:35:25.010Z,1.37
2018-02-12T08:37:52.668Z,0.70
2018-02-12T08:40:20.234Z,0.67
2018-02-12T08:42:47.795Z,1.27
2018-02-12T08:45:15.382Z,0.50
2018-02-12T08:47:42.943Z,1.73
2018-02-12T08:50:10.657Z,0.90
2018-02-12T08:52:38.240Z,0.90
2018-02-12T08:55:05.939Z,1.07
2018-02-12T08:57:33.487Z,1.10
2018-02-12T09:00:01.061Z,0.90
2018-02-12T09:02:28.624Z,0.50
2018-02-12T09:04:56.965Z,0.77
2018-02-12T09:07:24.517Z,0.90
2018-02-12T09:09:52.117Z,0.47
2018-02-12T09:12:19.673Z,0.60
2018-02-12T09:14:47.356Z,0.40
2018-02-12T09:17:15.692Z,1.00
2018-02-12T09:19:43.269Z,0.67
2018-02-12T09:22:10.921Z,0.47
2018-02-12T09:24:38.508Z,0.60
2018-02-12T09:27:06.861Z,0.50
2018-02-12T09:29:34.407Z,0.63
2018-02-12T09:32:02.030Z,0.60
2018-02-12T09:34:29.607Z,0.73
2018-02-12T09:36:57.199Z,1.60
2018-02-12T09:39:24.979Z,8.87
2018-02-12T09:41:52.581Z,5.63
2018-02-12T09:44:20.457Z,3.90
2018-02-12T09:46:48.054Z,4.17
2018-02-12T09:49:15.621Z,2.30
2018-02-12T09:51:43.175Z,1.90
2018-02-12T09:54:10.771Z,2.17
2018-02-12T09:56:39.127Z,4.68
2018-02-12T09:59:06.691Z,3.50
2018-02-12T10:01:34.292Z,4.70
2018-02-12T10:04:01.897Z,2.10
2018-02-12T10:06:30.195Z,1.70
2018-02-12T10:08:58.551Z,1.20
2018-02-12T10:11:26.094Z,2.10
2018-02-12T10:13:53.673Z,1.20
2018-02-12T10:16:21.295Z,1.40
2018-02-12T10:18:48.969Z,1.03
2018-02-12T10:21:16.537Z,1.00
2018-02-12T10:23:44.107Z,0.90
2018-02-12T10:26:11.718Z,1.45
2018-02-12T10:28:39.319Z,1.30
2018-02-12T10:31:06.879Z,1.17
2018-02-12T10:33:34.607Z,1.00
2018-02-12T10:36:02.225Z,0.50
2018-02-12T10:38:29.787Z,0.63
2018-02-12T10:40:57.391Z,1.20
2018-02-12T10:43:24.971Z,1.03
2018-02-12T10:45:52.569Z,1.20
2018-02-12T10:48:20.117Z,0.80
2018-02-12T10:50:48.008Z,1.33
2018-02-12T10:53:16.322Z,1.47
2018-02-12T10:55:44.038Z,1.10
2018-02-12T10:58:11.625Z,1.73
2018-02-12T11:00:39.204Z,1.57
2018-02-12T11:03:06.791Z,1.47
2018-02-12T11:05:34.353Z,2.90
2018-02-12T11:08:02.117Z,3.17
2018-02-12T11:10:29.704Z,1.40
2018-02-12T11:12:57.256Z,1.43
2018-02-12T11:15:25.617Z,1.10
2018-02-12T11:17:53.336Z,0.60
2018-02-12T11:20:20.872Z,1.43
2018-02-12T11:22:49.199Z,1.10
2018-02-12T11:25:16.949Z,0.90
2018-02-12T11:27:45.260Z,1.07
2018-02-12T11:30:12.815Z,0.60
2018-02-12T11:32:40.442Z,0.80
2018-02-12T11:35:07.996Z,1.10
2018-02-12T11:37:35.793Z,0.90
2018-02-12T11:40:03.418Z,0.80
2018-02-12T11:42:30.942Z,1.53
2018-02-12T11:44:58.541Z,0.83
2018-02-12T11:47:26.116Z,1.13
2018-02-12T11:49:53.680Z,1.50
2018-02-12T11:52:21.234Z,1.40
2018-02-12T11:54:49.946Z,0.97
2018-02-12T11:57:17.528Z,0.90
2018-02-12T11:59:45.102Z,1.00
2018-02-12T12:02:13.512Z,2.00
2018-02-12T12:04:41.104Z,2.30
2018-02-12T12:07:08.890Z,0.93
2018-02-12T12:09:36.556Z,0.90
2018-02-12T12:12:04.917Z,0.80
2018-02-12T12:14:32.492Z,1.07
2018-02-12T12:17:00.074Z,7.30
2018-02-12T12:19:27.655Z,4.50
2018-02-12T12:21:56.844Z,1.53
2018-02-12T12:24:24.472Z,1.17
2018-02-12T12:26:52.866Z,1.87
2018-02-12T12:29:21.208Z,1.00
2018-02-12T12:31:48.801Z,1.20
2018-02-12T12:34:17.180Z,1.07
2018-02-12T12:36:45.506Z,0.83
2018-02-12T12:39:13.075Z,0.77
2018-02-12T12:41:40.666Z,1.87
2018-02-12T12:44:08.246Z,1.23
2018-02-12T12:46:36.596Z,1.00
2018-02-12T12:49:04.206Z,1.77
2018-02-12T12:51:31.766Z,1.17
2018-02-12T12:53:59.345Z,0.60
2018-02-12T12:56:26.939Z,0.87
2018-02-12T12:58:54.676Z,0.77
2018-02-12T13:01:22.244Z,0.80
2018-02-12T13:03:49.930Z,0.97
2018-02-12T13:06:17.501Z,0.80
2018-02-12T13:08:45.832Z,0.70
2018-02-12T13:11:13.397Z,1.00
2018-02-12T13:13:40.978Z,1.03
2018-02-12T13:16:08.550Z,0.80
2018-02-12T13:18:36.948Z,1.40
2018-02-12T13:21:04.625Z,0.90
2018-02-12T13:23:32.259Z,1.00
2018-02-12T13:26:00.636Z,0.63
2018-02-12T13:28:28.952Z,0.50
2018-02-12T13:30:57.412Z,2.23
2018-02-12T13:33:24.966Z,0.50
2018-02-12T13:35:53.308Z,1.17
2018-02-12T13:38:20.864Z,0.60
2018-02-12T13:40:48.443Z,0.50
2018-02-12T13:43:16.834Z,0.60
2018-02-12T13:45:45.242Z,0.73
2018-02-12T13:48:12.840Z,0.87
2018-02-12T13:50:41.120Z,0.60
2018-02-12T13:53:08.792Z,0.50
2018-02-12T13:55:36.501Z,0.63
2018-02-12T13:58:04.073Z,0.60
2018-02-12T14:00:31.620Z,0.47
2018-02-12T14:02:59.387Z,0.50
2018-02-12T14:05:26.962Z,0.57
2018-02-12T14:07:54.536Z,0.60
2018-02-12T14:10:22.103Z,0.70
2018-02-12T14:12:49.667Z,0.70
2018-02-12T14:15:17.237Z,0.60
2018-02-12T14:17:44.825Z,0.40
2018-02-12T14:20:13.261Z,0.50
2018-02-12T14:22:40.817Z,0.60
2018-02-12T14:25:08.396Z,0.67
2018-02-12T14:27:35.959Z,0.40
2018-02-12T14:30:03.539Z,0.90
2018-02-12T14:32:31.877Z,0.60
2018-02-12T14:34:59.443Z,0.63
2018-02-12T14:37:27.059Z,0.53
2018-02-12T14:39:54.602Z,0.47
2018-02-12T14:42:22.207Z,0.90
2018-02-12T14:44:49.769Z,0.60
2018-02-12T14:47:17.317Z,0.40
2018-02-12T14:49:44.877Z,0.50
2018-02-12T14:52:12.516Z,0.70
2018-02-12T14:54:40.104Z,0.40
2018-02-12T14:57:07.671Z,0.40
2018-02-12T14:59:35.309Z,0.40
2018-02-12T15:02:02.933Z,0.43
2018-02-12T15:04:31.337Z,0.47
2018-02-12T15:06:58.905Z,0.57
2018-02-12T15:09:26.465Z,0.50
2018-02-12T15:11:54.037Z,0.30
2018-02-12T15:14:21.585Z,0.40
2018-02-12T15:16:49.178Z,0.40
2018-02-12T15:19:16.741Z,0.47
2018-02-12T15:21:45.872Z,0.30
2018-02-12T15:24:14.207Z,0.40
2018-02-12T15:26:41.817Z,0.50
2018-02-12T15:29:09.411Z,0.50
2018-02-12T15:31:36.999Z,0.60
2018-02-12T15:34:04.557Z,0.40
2018-02-12T15:36:32.899Z,0.40
2018-02-12T15:39:00.461Z,0.50
2018-02-12T15:41:28.066Z,0.40
2018-02-12T15:43:55.655Z,0.30
2018-02-12T15:46:23.229Z,0.40
2018-02-12T15:48:50.799Z,0.40
2018-02-12T15:51:18.755Z,0.50
2018-02-12T15:53:46.359Z,0.50
2018-02-12T15:56:13.929Z,0.40
2018-02-12T15:58:41.491Z,0.50
2018-02-12T16:01:09.085Z,0.40
2018-02-12T16:03:36.683Z,0.40
2018-02-12T16:06:04.255Z,0.40
2018-02-12T16:08:32.641Z,0.50
2018-02-12T16:11:01.166Z,0.60
2018-02-12T16:13:28.731Z,0.40
2018-02-12T16:15:56.298Z,0.40
2018-02-12T16:18:23.861Z,0.40
2018-02-12T16:20:51.588Z,0.57
2018-02-12T16:23:19.929Z,2.30
2018-02-12T16:25:47.524Z,0.50
2018-02-12T16:28:15.841Z,0.53
2018-02-12T16:30:43.405Z,1.10
2018-02-12T16:33:11.025Z,1.00
2018-02-12T16:35:39.404Z,0.90
2018-02-12T16:38:07.757Z,0.70
2018-02-12T16:40:35.320Z,0.97
2018-02-12T16:43:02.975Z,0.67
2018-02-12T16:45:30.569Z,1.37
2018-02-12T16:47:58.889Z,1.33
2018-02-12T16:50:26.488Z,1.17
2018-02-12T16:52:54.840Z,0.77
2018-02-12T16:55:22.557Z,0.70
2018-02-12T16:57:50.202Z,1.00
2018-02-12T17:00:18.575Z,1.00
2018-02-12T17:02:46.914Z,1.10
2018-02-12T17:05:14.868Z,1.33
2018-02-12T17:07:42.466Z,1.70
2018-02-12T17:10:10.006Z,1.50
2018-02-12T17:12:37.603Z,1.20
2018-02-12T17:15:05.931Z,1.07
2018-02-12T17:17:33.525Z,0.90
2018-02-12T17:20:01.140Z,1.20
2018-02-12T17:22:28.850Z,0.90
2018-02-12T17:24:56.526Z,0.93
2018-02-12T17:27:24.219Z,0.70
2018-02-12T17:29:51.844Z,0.73
2018-02-12T17:32:20.367Z,1.00
2018-02-12T17:34:47.999Z,1.10
2018-02-12T17:37:15.694Z,0.90
2018-02-12T17:39:43.243Z,1.10
2018-02-12T17:42:10.820Z,1.20
2018-02-12T17:44:38.520Z,1.17
2018-02-12T17:47:06.091Z,1.00
2018-02-12T17:49:33.699Z,1.30
2018-02-12T17:52:01.265Z,1.23
2018-02-12T17:54:28.896Z,1.50
2018-02-12T17:56:56.543Z,1.43
2018-02-12T17:59:24.892Z,1.00
2018-02-12T18:01:52.523Z,0.80
2018-02-12T18:04:20.126Z,1.00
2018-02-12T18:06:47.697Z,1.53
2018-02-12T18:09:16.116Z,1.60
2018-02-12T18:11:43.696Z,1.13
2018-02-12T18:14:11.251Z,1.23
2018-02-12T18:19:17.833Z,1.33
2018-02-12T18:21:45.427Z,1.13
2018-02-12T18:24:13.199Z,0.80
2018-02-12T18:26:41.125Z,1.07
2018-02-12T18:29:08.711Z,0.80
2018-02-12T18:31:36.307Z,0.70
2018-02-12T18:34:04.597Z,0.80
2018-02-12T18:36:32.184Z,0.80
2018-02-12T18:38:59.771Z,0.60
2018-02-12T18:41:27.404Z,0.73
2018-02-12T18:43:55.026Z,0.80
2018-02-12T18:46:23.350Z,0.80
2018-02-12T18:48:50.970Z,0.77
2018-02-12T18:51:18.530Z,1.20
2018-02-12T18:53:46.130Z,0.60
2018-02-12T18:56:13.870Z,0.80
2018-02-12T18:58:41.430Z,1.17
2018-02-12T19:01:09.005Z,1.00
2018-02-12T19:03:36.702Z,0.90
2018-02-12T19:06:04.318Z,0.70
2018-02-12T19:08:31.900Z,0.60
2018-02-12T19:10:59.670Z,0.70
2018-02-12T19:13:27.280Z,0.50
2018-02-12T19:15:54.910Z,0.50
2018-02-12T19:18:22.524Z,0.83
2018-02-12T19:20:50.097Z,1.00
2018-02-12T19:23:17.711Z,0.57
2018-02-12T19:25:46.077Z,0.70
2018-02-12T19:28:14.414Z,0.70
2018-02-12T19:30:42.761Z,0.80
2018-02-12T19:33:10.348Z,0.80
2018-02-12T19:35:37.965Z,0.50
2018-02-12T19:38:06.314Z,0.60
2018-02-12T19:40:33.872Z,0.50
2018-02-12T19:43:01.672Z,0.50
2018-02-12T19:45:30.075Z,0.70
2018-02-12T19:47:57.947Z,0.70
2018-02-12T19:50:25.548Z,0.57
2018-02-12T19:52:53.191Z,0.60
2018-02-12T19:55:20.805Z,0.50
2018-02-12T19:57:48.550Z,0.60
2018-02-12T20:00:16.926Z,0.73
2018-02-12T20:02:45.347Z,0.50
2018-02-12T20:05:13.121Z,0.67
2018-02-12T20:07:40.970Z,0.73
2018-02-12T20:10:08.583Z,0.53
2018-02-12T20:12:36.332Z,0.80
2018-02-12T20:15:04.755Z,0.50
2018-02-12T20:17:32.370Z,0.60
2018-02-12T20:20:00.010Z,0.60
2018-02-12T20:22:27.710Z,0.60
2018-02-12T20:24:55.319Z,0.40
2018-02-12T20:27:23.071Z,0.60
2018-02-12T20:29:51.677Z,0.70
2018-02-12T20:32:19.261Z,0.60
2018-02-12T20:34:46.916Z,0.53
2018-02-12T20:37:14.570Z,0.63
2018-02-12T20:39:42.295Z,0.53
2018-02-12T20:42:10.717Z,0.60
2018-02-12T20:44:38.412Z,0.80
2018-02-12T20:47:06.159Z,0.60
2018-02-12T20:49:33.891Z,0.60
2018-02-12T20:52:02.228Z,0.50
2018-02-12T20:54:29.829Z,0.60
2018-02-12T20:56:57.497Z,0.57
2018-02-12T20:59:25.168Z,0.70
2018-02-12T21:01:52.745Z,0.80
2018-02-12T21:04:20.400Z,0.50
2018-02-12T21:06:48.041Z,0.63
2018-02-12T21:09:15.657Z,0.60
2018-02-12T21:11:43.351Z,0.40
2018-02-12T21:14:11.097Z,0.50
2018-02-12T21:16:39.450Z,0.53
2018-02-12T21:19:07.108Z,0.50
2018-02-12T21:21:34.725Z,1.47
2018-02-12T21:24:02.537Z,0.50
2018-02-12T21:26:30.125Z,0.57
2018-02-12T21:28:58.660Z,0.73
2018-02-12T21:31:26.295Z,0.70
2018-02-12T21:33:53.938Z,1.70
2018-02-12T21:36:21.579Z,0.50
2018-02-12T21:38:49.885Z,0.60
2018-02-12T21:41:17.500Z,0.60
2018-02-12T21:43:45.065Z,0.70
2018-02-12T21:46:12.699Z,0.70
2018-02-12T21:48:40.281Z,0.60
2018-02-12T21:51:08.020Z,0.70
2018-02-12T21:53:35.587Z,0.60
2018-02-12T21:56:03.296Z,0.60
2018-02-12T21:58:31.643Z,0.50
2018-02-12T22:01:00.144Z,0.70
2018-02-12T22:03:28.507Z,1.27
2018-02-12T22:05:56.085Z,0.67
2018-02-12T22:08:24.410Z,0.57
2018-02-12T22:10:52.163Z,0.83
2018-02-12T22:13:19.753Z,0.97
2018-02-12T22:15:47.333Z,0.60
2018-02-12T22:18:14.979Z,0.83
2018-02-12T22:20:42.527Z,0.70
2018-02-12T22:23:10.213Z,0.70
2018-02-12T22:25:37.806Z,0.50
2018-02-12T22:28:06.140Z,0.60
2018-02-12T22:30:33.816Z,0.60
2018-02-12T22:33:01.403Z,0.60
2018-02-12T22:35:29.955Z,0.50
2018-02-12T22:37:57.569Z,0.70
2018-02-12T22:40:25.246Z,0.70
2018-02-12T22:42:52.864Z,0.60
2018-02-12T22:45:21.207Z,0.73
2018-02-12T22:47:48.817Z,0.67
2018-02-12T22:50:16.405Z,0.80
2018-02-12T22:52:44.001Z,0.70
2018-02-12T22:55:11.777Z,0.47
2018-02-12T22:57:40.312Z,0.73
2018-02-12T23:00:08.045Z,0.73
2018-02-12T23:02:35.604Z,0.50
2018-02-12T23:05:03.136Z,0.60
2018-02-12T23:07:30.769Z,0.50
2018-02-12T23:09:58.363Z,0.70
2018-02-12T23:12:25.908Z,0.60
2018-02-12T23:14:53.475Z,0.57
2018-02-12T23:17:21.827Z,0.80
2018-02-12T23:19:49.471Z,0.60
2018-02-12T23:22:17.028Z,0.60
2018-02-12T23:24:44.608Z,0.70
2018-02-12T23:27:12.263Z,0.70
2018-02-12T23:29:39.850Z,0.80
2018-02-12T23:32:07.436Z,0.70
2018-02-12T23:34:35.326Z,0.77
2018-02-12T23:37:03.016Z,0.50
2018-02-12T23:39:30.647Z,0.40
2018-02-12T23:41:58.979Z,1.00
2018-02-12T23:44:26.662Z,0.60
2018-02-12T23:46:55.042Z,0.50
2018-02-12T23:49:23.355Z,0.67
2018-02-12T23:51:50.959Z,0.50
2018-02-12T23:54:24.253Z,0.60
2018-02-12T23:56:51.800Z,0.60
2018-02-12T23:59:19.387Z,0.50
